Flight Track Log - Related Links

Times and Time Zones

All times are in EDT time to prevent confusion due to time zone crossing. See the FLG3862 flight status page for this flight to view local times or setup timezone preferences in your user account.

Time Position Orientation Groundspeed Altitude Reporting Facility
EDT Latitude Longitude Course Direction KTS MPH feet Rate Location/Type
Sun 10:29:58 AM 42.2017 -83.3558 192° South 155 178 1,700  Level FAA TRACON SMA TRACON (SMA)
Sun 10:30:18 AM 42.1867 -83.3603 192° South 163 188 2,600 2,400 Climbing FAA TRACON SMA TRACON (SMA)
Sun 10:30:38 AM 42.1722 -83.3636 190° South 184 212 3,300 2,400 Climbing FAA TRACON SMA TRACON (SMA)
Sun 10:30:58 AM 42.1517 -83.3678 189° South 215 247 4,200 2,700 Climbing FAA TRACON SMA TRACON (SMA)
Sun 10:31:18 AM 42.1294 -83.3719 188° South 234 269 5,100 2,250 Climbing FAA TRACON SMA TRACON (SMA)
Sun 10:31:38 AM 42.1081 -83.3608 159° South 255 293 5,700 2,270 Climbing FAA TRACON SMA TRACON (SMA)
Sun 10:31:55 AM 42.0978 -83.3369 120° Southeast 265 305 6,500 2,595 Climbing Cleveland Center
Sun 10:32:52 AM 42.0919 -83.2331 94° East 270 311 8,900 1,846 Climbing Cleveland Center
Sun 10:33:52 AM 42.1028 -83.1272 82° East 348 400 10,100 1,150 Climbing Cleveland Center
Sun 10:34:52 AM 42.1467 -83.0225 60° Northeast 370 426 11,200 1,400 Climbing Cleveland Center
Sun 10:35:52 AM 42.1950 -82.8953 63° Northeast 386 444 12,900 1,950 Climbing Cleveland Center
Sun 10:36:52 AM 42.2478 -82.7656 61° Northeast 386 444 15,100 2,200 Climbing Cleveland Center
Sun 10:37:52 AM 42.2981 -82.6325 63° Northeast 386 444 17,300 2,050 Climbing Cleveland Center
Sun 10:38:52 AM 42.3483 -82.5019 62° Northeast 386 444 19,200 1,900 Climbing Cleveland Center
Sun 10:39:52 AM 42.3631 -82.3592 82° East 377 434 21,100 1,600 Climbing Cleveland Center
Sun 10:40:52 AM 42.3569 -82.2072 93° East 377 434 22,400 1,300 Climbing Cleveland Center
Sun 10:41:52 AM 42.3508 -82.0525 93° East 399 459 23,700 1,250 Climbing Cleveland Center
Sun 10:42:52 AM 42.3444 -81.8922 93° East 410 472 24,900 1,050 Climbing Cleveland Center
Sun 10:43:52 AM 42.3378 -81.7319 93° East 428 493 25,800 850 Climbing Cleveland Center
Sun 10:44:52 AM 42.3289 -81.5661 94° East 439 505 26,600 800 Climbing Cleveland Center
Sun 10:45:52 AM 42.3200 -81.3806 94° East 444 511 27,400 850 Climbing Cleveland Center
Sun 10:46:52 AM 42.3125 -81.2064 93° East 449 517 28,300 850 Climbing Cleveland Center
Sun 10:47:52 AM 42.3050 -81.0353 93° East 463 533 29,100 800 Climbing Cleveland Center
Sun 10:48:52 AM 42.2953 -80.8611 94° East 463 533 29,900 800 Climbing Cleveland Center
Sun 10:49:52 AM 42.3414 -80.6983 69° East 458 527 30,700 550 Climbing Cleveland Center
Sun 10:50:52 AM 42.3936 -80.5325 67° East 463 533 31,000 150 Climbing Cleveland Center
Sun 10:51:52 AM 42.4517 -80.3664 65° Northeast 477 549 31,000  Level Cleveland Center
Sun 10:52:52 AM 42.5011 -80.1972 68° East 482 555 31,000  Level Cleveland Center
Sun 10:53:52 AM 42.5547 -80.0447 64° Northeast 487 560 31,000  Level Cleveland Center
Sun 10:54:52 AM 42.6164 -79.8525 66° East 492 566 31,000  Level Cleveland Center
Sun 10:55:52 AM 42.6733 -79.6794 66° East 492 566 31,000  Level Cleveland Center
Sun 10:56:52 AM 42.7242 -79.5064 68° East 497 572 31,000  Level Cleveland Center
Sun 10:57:52 AM 42.7786 -79.3300 67° East 497 572 31,000  Level Cleveland Center
Sun 10:58:52 AM 42.8328 -79.1564 67° East 502 578 31,000  Level Cleveland Center
Sun 10:59:52 AM 42.8867 -78.9767 68° East 497 572 31,000  Level Cleveland Center
Sun 11:00:52 AM 42.9406 -78.8022 67° East 497 572 31,000  Level Cleveland Center
Sun 11:01:52 AM 42.9939 -78.6219 68° East 497 572 31,000  Level Cleveland Center
Sun 11:02:52 AM 43.0411 -78.4669 67° East 497 572 31,000  Level Cleveland Center
Sun 11:03:52 AM 43.0942 -78.2917 67° East 497 572 31,000  Level Cleveland Center
Sun 11:04:52 AM 43.1467 -78.1106 68° East 497 572 31,000  Level Cleveland Center
Sun 11:05:52 AM 43.1989 -77.9347 68° East 497 572 31,000  Level Cleveland Center
Sun 11:06:52 AM 43.2511 -77.7558 68° East 497 572 31,000  Level Cleveland Center
Sun 11:07:52 AM 43.3028 -77.5764 68° East 497 572 31,000  Level Cleveland Center
Sun 11:08:52 AM 43.3542 -77.3969 68° East 497 572 31,000  Level Cleveland Center
Sun 11:10:39 AM 43.4483 -77.0769 68° East 499 574 31,000  Level Boston Center
Sun 11:11:39 AM 43.4975 -76.8944 70° East 499 574 31,000  Level Boston Center
Sun 11:12:39 AM 43.5503 -76.7119 68° East 499 574 31,000  Level Boston Center
Sun 11:13:39 AM 43.6028 -76.5322 68° East 505 581 31,000  Level Boston Center
Sun 11:14:39 AM 43.6531 -76.3461 69° East 505 581 31,000  Level Boston Center
Sun 11:15:39 AM 43.7028 -76.1653 69° East 505 581 31,000  Level Boston Center
Sun 11:16:39 AM 43.7544 -75.9789 69° East 505 581 31,000 -400 Level Boston Center
Sun 11:17:39 AM 43.8039 -75.7947 70° East 505 581 30,200 -1,050 Descending Boston Center
Sun 11:18:39 AM 43.8531 -75.6072 70° East 510 587 28,900 -1,200 Descending Boston Center
Sun 11:19:39 AM 43.9039 -75.4197 69° East 494 568 27,800 -1,200 Descending Boston Center
Sun 11:20:39 AM 43.9478 -75.2489 70° East 474 545 26,500 -1,250 Descending Boston Center
Sun 11:21:39 AM 43.9914 -75.0778 70° East 468 539 25,300 -1,200 Descending Boston Center
Sun 11:22:39 AM 44.0325 -74.9178 70° East 455 524 24,100 -1,200 Descending Boston Center
Sun 11:23:39 AM 44.0733 -74.7547 71° East 450 518 22,900 -1,200 Descending Boston Center
Sun 11:24:39 AM 44.1161 -74.5975 69° East 444 511 21,700 -1,200 Descending Boston Center
Sun 11:25:39 AM 44.1544 -74.4397 71° East 438 504 20,500 -1,200 Descending Boston Center
Sun 11:26:39 AM 44.1925 -74.2844 71° East 432 497 19,300 -1,200 Descending Boston Center
Sun 11:27:39 AM 44.2300 -74.1378 70° East 420 483 18,100 -1,100 Descending Boston Center
Sun 11:28:39 AM 44.2656 -73.9911 71° East 404 465 17,100 -1,850 Descending Boston Center
Sun 11:29:39 AM 44.3006 -73.8528 70° East 392 451 14,400 -2,700 Descending Boston Center
Sun 11:30:39 AM 44.3311 -73.7317 71° East 380 437 11,700 -2,100 Descending Boston Center
Sun 11:31:39 AM 44.3575 -73.6103 73° East 343 395 10,200 -1,850 Descending Boston Center
Sun 11:32:39 AM 44.3503 -73.4881 95° East 288 331 8,000 -2,200 Descending Boston Center
Sun 11:33:39 AM 44.3469 -73.3836 93° East 277 319 5,800 -1,250 Descending Boston Center
Sun 11:34:39 AM 44.3414 -73.2933 95° East 251 289 5,500 -100 Descending Boston Center
Sun 11:35:39 AM 44.3150 -73.2292 120° Southeast 203 234 5,600  Climbing Boston Center
Sun 11:36:39 AM 44.2672 -73.1794 143° Southeast 192 221 5,500 -300 Descending Boston Center
Sun 11:37:39 AM 44.2197 -73.1267 141° Southeast 213 245 5,000 -250 Descending Boston Center
Sun 11:38:39 AM 44.2325 -73.0658 74° East 158 182 5,000  Level Boston Center
Sun 11:39:39 AM 44.2722 -73.0258 36° Northeast 151 174 5,000  Level Boston Center
Sun 11:40:39 AM 44.3122 -72.9914 32° Northeast 170 196 5,000 -300 Level Boston Center
Sun 11:41:39 AM 44.3600 -72.9858 North 175 201 4,400 -600 Descending Boston Center

Login

Don't have an account? Register now (free) for customized features, flight alerts, and more!